Station: Parawa West

  Atmospheric Gas Attenuation - ITU Rec 676-11   --------------- db/100km ---------------
Date Time Temp RH % AH g/m3 Dew Point Wind Direction Speed kph Gust kph Barometer mB Rainfall Since 9am 24GHz 47GHz 76GHz 122GHz 134GHz 241GHz
21 19:50 10.7 89 8.74 8.9 30 35 1013.1 0.2 20.0 27.0 42.0 110.2 104.4 358.9
21 19:40 10.5 90 8.73 8.9 28 39 1013.1 0.2 20.0 27.1 42.0 110.4 104.5 359.4
21 19:30 11.1 86 8.66 8.8 28 48 1004.3 0 19.9 26.5 41.0 107.8 102.0 350.7
21 19:20 11.2 84 8.52 8.7 32 41 1013.1 0 19.5 26.5 40.8 107.1 100.7 346.1
21 19:10 11.1 82 8.26 8.1 32 44 1013.1 0 19.0 26.1 39.8 104.3 97.3 334.1
21 19:00 10.8 84 8.3 8.2 26 43 1004.2 0 19.1 25.9 39.7 104.2 97.4 334.9
21 18:50 10.8 84 8.3 8.3 24 32 1013.1 0 19.1 26.3 40.1 105.2 98.2 337.3
21 18:40 10.9 90 8.95 9.3 22 33 1013.1 0 20.5 27.3 42.8 112.3 107.0 368.2
21 18:30 10.8 91 9 9.4 28 48 1003.8 0 20.6 27.1 42.6 112.0 107.0 368.3
21 18:20 10.7 92 9.04 9.4 22 32 1013.1 0 20.7 27.6 43.2 113.6 108.5 373.5
21 18:10 11 90 9.01 9.4 30 37 1013.1 0 20.6 27.4 43.0 112.8 107.7 370.6
21 18:00 11 90 9.01 9.4 30 46 1003.6 0 20.6 27.0 42.5 111.8 106.9 367.8
21 17:50 10.9 90 8.95 9.3 26 33 1013.1 0 20.5 27.3 42.8 112.3 107.0 368.2
21 17:40 10.8 90 8.9 9.2 32 43 1013.1 0 20.4 27.3 42.6 111.9 106.4 366.2
21 17:30 10.7 90 8.84 9.1 26 41 1013.1 0 20.3 27.2 42.4 111.3 105.7 363.8
21 17:20 10.6 90 8.79 9 35 43 1013.1 0 20.2 27.2 42.2 110.9 105.2 361.8
21 17:10 10.5 89 8.63 8.7 32 50 1013.1 0 19.8 26.9 41.6 109.3 103.1 354.5
21 17:00 10.5 88 8.54 8.6 30 52 1003.2 0 19.6 26.4 40.8 107.2 101.0 347.3
21 16:50 10.5 87 8.44 8.4 28 37 1013.1 0 19.4 26.6 40.8 107.1 100.5 345.3
21 16:40 10 85 7.99 7.6 32 39 1013.1 0 18.5 26.0 39.2 102.8 95.0 326.0
21 16:30 11.1 86 8.66 8.8 41 67 1003 0 19.9 26.4 41.0 107.7 101.9 350.3
21 16:20 12.4 77 8.41 8.6 35 48 1013.1 0 19.3 26.0 39.7 104.2 97.6 335.6
21 16:10 12.6 75 8.3 8.3 33 48 1013.1 0 19.0 25.7 39.2 102.8 95.9 329.6
21 16:00 12.8 73 8.18 8.1 32 54 1002.7 0 18.7 25.1 38.1 100.2 93.3 320.5
21 15:50 13 72 8.17 8.2 26 33 1013.1 0 18.7 25.4 38.5 100.9 93.7 322.0
21 15:40 13.3 71 8.2 8.1 32 41 1013.1 0 18.8 25.4 38.4 100.8 93.7 322.1
21 15:30 13.4 70 8.14 8 30 50 1002.6 0 18.6 24.9 37.7 99.0 92.0 316.2
21 15:20 13.7 69 8.17 8.1 30 37 1013.1 0 18.7 25.2 38.1 100.0 92.9 319.1
21 15:10 14.2 71 8.67 9 32 44 1013.1 0 19.7 25.9 39.9 104.7 98.8 340.0
21 15:00 13.6 72 8.47 8.7 28 50 1002.7 0 19.3 25.3 38.9 102.2 96.1 330.5
21 14:50 13.2 75 8.61 9 30 46 1013.1 0 19.6 26.1 40.1 105.3 99.3 341.5
21 14:40 12.9 75 8.45 8.7 26 33 1013.1 0 19.3 25.9 39.6 104.0 97.5 335.4
21 14:30 13.6 73 8.59 8.9 32 50 1002.8 0 19.6 25.5 39.4 103.5 97.7 336.0
21 14:20 14 75 9.05 9.6 26 35 1013.1 0 20.5 26.6 41.5 109.0 104.1 358.5
21 14:10 13.7 72 8.53 8.7 33 44 1013.1 0 19.4 25.8 39.6 103.8 97.6 335.6
21 14:00 14.1 73 8.86 9.3 28 50 1002.8 0 20.1 25.8 40.2 105.7 100.6 346.3
21 13:50 13.8 74 8.82 9.2 28 35 1013.1 0 20.1 26.2 40.7 106.8 101.3 348.7
21 13:40 13.8 73 8.7 9 35 44 1013.1 0 19.8 26.1 40.2 105.5 99.7 343.1
21 13:30 13 77 8.73 9.1 33 54 1002.9 0 19.9 25.9 40.3 105.8 100.3 345.1
21 13:20 13.4 76 8.84 9.2 35 48 1013.1 0 20.1 26.4 41.0 107.6 102.1 351.4
21 13:10 13.4 76 8.84 9.2 32 43 1013.1 0 20.1 26.4 41.0 107.6 102.1 351.4
21 13:00 13.1 76 8.67 9 33 56 1002.7 0 19.8 25.8 40.0 105.0 99.3 341.8
21 12:50 13.1 81 9.24 9.9 33 46 1013.1 0 21.0 27.2 42.8 112.4 107.9 371.7
21 12:40 13.1 78 8.9 9.3 41 50 1013.1 0 20.3 26.6 41.4 108.6 103.3 355.6
21 12:30 13.6 74 8.71 9.1 35 67 1002.5 0 19.8 25.7 39.9 104.8 99.2 341.5
21 12:20 13.3 73 8.43 8.7 41 52 1013.1 0 19.3 25.8 39.4 103.3 96.8 332.7
21 12:10 13.6 71 8.36 8.4 44 56 1013.1 0 19.1 25.6 38.9 102.1 95.5 328.2
21 12:00 13.5 73 8.54 8.8 41 65 1002.4 0 19.5 25.5 39.2 103.1 97.1 334.0
21 11:50 13.7 74 8.76 9.1 30 41 1013.1 0 19.9 26.2 40.5 106.3 100.6 346.3
21 11:40 13.4 73 8.49 8.6 32 44 1013.1 0 19.4 25.8 39.5 103.8 97.4 335.1
21 11:30 12.7 70 7.79 7.4 41 69 1002.4 0 17.9 24.5 36.6 96.2 88.3 303.1
21 11:20 12.8 70 7.84 7.6 44 56 1013.1 0 18.0 25.0 37.2 97.6 89.6 307.7
21 11:10 12.5 71 7.81 7.4 44 54 1013.1 0 18.0 25.0 37.3 97.7 89.6 307.5
21 11:00 12.4 69 7.54 6.9 33 54 1002.2 0 17.4 24.2 35.8 93.9 85.4 292.9
21 10:50 12.7 68 7.57 6.9 37 50 1013.1 0 17.4 24.6 36.2 94.9 86.2 295.8
21 10:40 12.9 68 7.66 7.1 30 43 1013.1 0 17.6 24.6 36.5 95.6 87.2 299.1
21 10:30 13.3 70 8.09 8 26 50 1002.2 0 18.5 24.8 37.5 98.5 91.5 314.2
21 10:20 12.8 70 7.84 7.6 20 26 1013.1 0 18.0 25.0 37.2 97.6 89.6 307.7
21 10:10 12.3 71 7.71 7.2 20 32 1013.1 0 17.8 24.9 37.0 96.9 88.5 303.7
21 10:00 12.6 71 7.86 7.5 17 32 1002 0 18.1 24.6 36.9 97.0 89.3 306.5
21 09:50 12.7 70 7.79 7.5 15 20 1013.1 0 17.9 24.9 37.1 97.2 89.1 305.8
21 09:40 12.7 69 7.68 7.1 17 32 1013.1 0 17.7 24.7 36.7 96.1 87.7 300.8
21 09:30 12.4 68 7.43 6.7 15 39 1002.2 0 17.2 24.0 35.4 92.7 84.0 287.9
21 09:20 12.3 73 7.93 7.6 11 17 1013.1 0 18.2 25.2 37.8 99.2 91.4 313.8
21 09:10 12.1 80 8.58 8.7 9 11 1013.1 0 19.6 26.4 40.6 106.5 100.3 344.9
21 09:00 12.1 81 8.69 8.9 9 28 1002.6 0 19.9 26.1 40.5 106.6 100.9 347.2
21 08:50 11.7 82 8.58 8.7 7 11 1013.1 0 19.6 26.5 40.8 107.0 100.8 346.7
21 08:40 11.7 83 8.68 8.9 11 22 1013.1 0 19.9 26.6 41.2 108.2 102.2 351.5
21 08:30 11.4 83 8.52 8.6 9 24 1002.9 0 19.5 26.1 40.2 105.7 99.5 342.3
21 08:20 11.3 82 8.37 8.3 9 13 1013.1 0 19.2 26.2 40.1 105.3 98.5 338.5
21 08:10 11.4 79 8.11 8 6 7 1013.1 0 18.7 25.8 39.0 102.3 94.9 325.8
21 08:00 11.1 80 8.06 7.8 7 22 1002.9 0 18.6 25.4 38.5 101.1 93.7 322.0
21 07:50 11 79 7.91 7.6 7 13 1013.1 0 18.2 25.6 38.4 100.6 92.7 318.1
21 07:40 10.6 82 8.01 7.6 7 9 1013.1 0 18.5 25.9 39.0 102.3 94.5 324.4
21 07:30 10.4 83 8 7.6 7 17 1003.4 0 18.5 25.5 38.6 101.4 93.8 322.2
21 07:20 10 84 7.9 7.4 6 13 1013.1 0 18.3 25.8 38.8 101.8 93.7 321.7
21 07:10 9.7 85 7.84 7.3 7 13 1013.1 0 18.2 25.8 38.7 101.6 93.3 320.1
21 07:00 9.5 86 7.83 7.3 9 17 1003.5 0 18.1 25.5 38.4 100.7 92.6 317.9
21 06:50 9.3 85 7.64 7 7 9 1013.1 0 17.7 25.6 38.1 99.9 91.1 312.2
21 06:40 9.1 87 7.72 7 9 15 1013.1 0 17.9 25.8 38.5 101.0 92.4 316.8
21 06:30 9 88 7.76 7.1 9 19 1003.4 0 18.0 25.5 38.3 100.6 92.3 316.6
21 06:20 8.9 88 7.71 7 7 11 1013.1 0 17.9 25.9 38.6 101.2 92.5 317.1
21 06:10 9 87 7.67 6.9 7 15 1013.1 0 17.8 25.8 38.4 100.6 91.8 314.8
21 06:00 9.2 86 7.68 7 15 24 1003.4 0 17.8 25.3 37.9 99.4 91.0 312.0
21 05:50 9.3 84 7.55 6.7 15 19 1013.1 0 17.5 25.5 37.7 98.9 89.8 307.9
21 05:40 9.5 83 7.56 6.7 15 19 1013.1 0 17.6 25.4 37.7 98.7 89.7 307.6
21 05:30 9.4 83 7.51 6.7 19 28 1003.6 0 17.5 25.0 37.1 97.4 88.5 303.2
21 05:20 9.5 83 7.56 6.7 19 24 1013.1 0 17.6 25.4 37.7 98.7 89.7 307.6
21 05:10 9.5 81 7.38 6.5 26 33 1013.1 0 17.2 25.1 36.9 96.8 87.3 299.1
21 04:50 9.4 81 7.33 6.4 17 22 1013.1 0 17.1 25.1 36.8 96.4 86.8 297.2
21 04:40 9.4 83 7.51 6.6 19 26 1013.1 0 17.5 25.4 37.5 98.3 89.2 305.6
21 04:30 9.6 83 7.61 6.9 22 33 1003.5 0 17.7 25.1 37.4 98.2 89.6 307.1
21 04:20 9.6 84 7.7 7 22 30 1013.1 0 17.9 25.6 38.2 100.2 91.5 313.8
21 04:10 9.7 84 7.75 7.1 20 35 1013.1 0 18.0 25.7 38.4 100.6 92.1 315.8
21 04:00 9.8 85 7.89 7.4 17 30 1003.6 0 18.3 25.5 38.5 101.0 93.1 319.5
21 03:50 9.8 84 7.8 7.2 15 19 1013.1 0 18.1 25.7 38.5 101.0 92.6 317.7
21 03:40 9.9 84 7.85 7.3 20 24 1013.1 0 18.2 25.8 38.7 101.4 93.2 319.7
21 03:30 9.9 84 7.85 7.3 20 37 1003.6 0 18.2 25.4 38.2 100.4 92.4 317.2
21 03:20 9.9 84 7.85 7.3 20 26 1013.1 0 18.2 25.8 38.7 101.4 93.2 319.7
21 03:10 9.7 81 7.47 6.7 20 30 1013.1 0 17.4 25.2 37.2 97.5 88.3 302.6

Last Refresh: 21-Sep-2020 19:59:03

Most of the information presented on this site is sourced from the Bureau of Meteorology.  Copyright in all material sourced from the Bureau of Meteorology resides with the Commonwealth of Australia.